createdAt,value
2019-02-10T00:00:25.782Z,305.14
2019-02-10T00:01:25.703Z,305.08
2019-02-10T00:02:25.633Z,304.68
2019-02-10T00:03:25.627Z,304.78
2019-02-10T00:04:25.661Z,304.96
2019-02-10T00:05:25.727Z,304.78
2019-02-10T00:06:25.593Z,305.12
2019-02-10T00:07:25.573Z,305.08
2019-02-10T00:08:25.568Z,304.60
2019-02-10T00:09:25.566Z,304.56
2019-02-10T00:10:25.591Z,305.12
2019-02-10T00:11:25.539Z,304.92
2019-02-10T00:12:25.523Z,304.95
2019-02-10T00:13:25.519Z,305.03
2019-02-10T00:14:25.520Z,304.86
2019-02-10T00:15:25.501Z,304.66
2019-02-10T00:16:25.505Z,305.23
2019-02-10T00:17:25.480Z,305.00
2019-02-10T00:18:25.461Z,305.03
2019-02-10T00:19:25.471Z,304.84
2019-02-10T00:20:25.428Z,305.43
2019-02-10T00:21:25.488Z,305.35
2019-02-10T00:22:25.418Z,305.33
2019-02-10T00:23:25.418Z,305.39
2019-02-10T00:24:25.407Z,304.95
2019-02-10T00:25:25.409Z,305.20
2019-02-10T00:26:25.390Z,305.19
2019-02-10T00:27:25.469Z,305.35
2019-02-10T00:28:25.359Z,305.69
2019-02-10T00:29:25.354Z,305.26
2019-02-10T00:30:25.357Z,304.89
2019-02-10T00:31:25.331Z,305.19
2019-02-10T00:32:25.305Z,305.12
2019-02-10T00:33:25.314Z,304.94
2019-02-10T00:34:25.310Z,304.83
2019-02-10T00:35:25.285Z,305.13
2019-02-10T00:36:32.646Z,305.29
2019-02-10T00:37:26.282Z,304.90
2019-02-10T00:38:25.241Z,305.16
2019-02-10T00:39:25.232Z,305.73
2019-02-10T00:40:25.249Z,305.46
2019-02-10T00:41:25.204Z,304.90
2019-02-10T00:42:25.197Z,304.92
2019-02-10T00:43:25.188Z,305.32
2019-02-10T00:44:25.192Z,305.22
2019-02-10T00:45:25.235Z,304.87
2019-02-10T00:46:25.186Z,305.36
2019-02-10T00:47:25.148Z,305.06
2019-02-10T00:48:25.139Z,304.52
2019-02-10T00:49:25.126Z,305.02
2019-02-10T00:50:25.109Z,305.12
2019-02-10T00:51:25.123Z,304.88
2019-02-10T00:52:25.090Z,305.04
2019-02-10T00:53:25.073Z,304.98
2019-02-10T00:54:25.078Z,305.53
2019-02-10T00:55:25.067Z,305.21
2019-02-10T00:56:25.066Z,305.50
2019-02-10T00:57:25.060Z,305.35
2019-02-10T00:58:25.013Z,305.41
2019-02-10T00:59:25.007Z,305.11
2019-02-10T01:00:25.005Z,304.86
2019-02-10T01:01:25.785Z,305.06
2019-02-10T01:02:25.000Z,304.99
2019-02-10T01:03:24.970Z,305.50
2019-02-10T01:04:24.976Z,305.22
2019-02-10T01:05:24.945Z,304.98
2019-02-10T01:06:24.948Z,304.64
2019-02-10T01:07:24.931Z,305.01
2019-02-10T01:08:24.939Z,305.49
2019-02-10T01:09:24.911Z,305.15
2019-02-10T01:10:24.897Z,305.03
2019-02-10T01:11:24.875Z,305.23
2019-02-10T01:12:24.865Z,305.11
2019-02-10T01:13:24.891Z,304.79
2019-02-10T01:14:24.844Z,305.10
2019-02-10T01:15:24.851Z,305.20
2019-02-10T01:16:24.816Z,304.84
2019-02-10T01:17:24.809Z,305.00
2019-02-10T01:18:24.828Z,305.21
2019-02-10T01:19:24.815Z,304.88
2019-02-10T01:20:24.787Z,304.43
2019-02-10T01:21:24.786Z,305.23
2019-02-10T01:22:24.758Z,304.87
2019-02-10T01:23:24.759Z,305.08
2019-02-10T01:24:24.773Z,304.58
2019-02-10T01:25:24.723Z,304.50
2019-02-10T01:26:24.730Z,304.42
2019-02-10T01:27:24.725Z,304.58
2019-02-10T01:28:24.720Z,305.32
2019-02-10T01:29:24.707Z,305.35
2019-02-10T01:30:24.674Z,304.90
2019-02-10T01:31:24.663Z,305.02
2019-02-10T01:32:24.659Z,304.97
2019-02-10T01:33:24.644Z,304.73
2019-02-10T01:34:24.671Z,304.39
2019-02-10T01:35:24.639Z,305.13
2019-02-10T01:36:24.611Z,304.77
2019-02-10T01:37:24.594Z,304.98
2019-02-10T01:38:24.610Z,304.85
2019-02-10T01:39:24.627Z,304.87
2019-02-10T01:40:24.565Z,304.96
2019-02-10T01:41:24.551Z,304.89
2019-02-10T01:42:24.544Z,304.84
2019-02-10T01:43:24.623Z,305.23
2019-02-10T01:44:24.520Z,305.31
2019-02-10T01:45:24.540Z,304.76
2019-02-10T01:46:24.516Z,304.90
2019-02-10T01:47:24.522Z,305.27
2019-02-10T01:48:24.484Z,304.75
2019-02-10T01:49:24.462Z,304.55
2019-02-10T01:50:24.474Z,304.67
2019-02-10T01:51:24.472Z,304.88
2019-02-10T01:52:24.450Z,304.88
2019-02-10T01:53:24.427Z,305.46
2019-02-10T01:54:24.427Z,305.06
2019-02-10T01:55:24.415Z,304.63
2019-02-10T01:56:24.424Z,305.09
2019-02-10T01:57:24.369Z,305.24
2019-02-10T01:58:24.372Z,305.16
2019-02-10T01:59:24.359Z,304.76
2019-02-10T02:00:24.357Z,304.70
2019-02-10T02:01:24.344Z,304.93
2019-02-10T02:02:24.347Z,304.70
2019-02-10T02:03:24.316Z,304.87
2019-02-10T02:04:24.309Z,304.84
2019-02-10T02:05:24.299Z,305.19
2019-02-10T02:06:24.280Z,304.80
2019-02-10T02:07:24.310Z,304.96
2019-02-10T02:08:24.250Z,304.86
2019-02-10T02:09:24.238Z,304.56
2019-02-10T02:10:24.239Z,304.72
2019-02-10T02:11:24.239Z,305.09
2019-02-10T02:12:24.216Z,304.54
2019-02-10T02:13:24.230Z,305.58
2019-02-10T02:14:24.190Z,304.98
2019-02-10T02:15:24.193Z,304.91
2019-02-10T02:16:24.166Z,305.03
2019-02-10T02:17:24.158Z,304.73
2019-02-10T02:18:24.250Z,304.81
2019-02-10T02:19:24.136Z,304.93
2019-02-10T02:20:24.123Z,304.98
2019-02-10T02:21:24.106Z,305.19
2019-02-10T02:22:24.138Z,305.53
2019-02-10T02:23:24.114Z,304.83
2019-02-10T02:24:24.203Z,304.94
2019-02-10T02:25:24.142Z,305.44
2019-02-10T02:26:24.099Z,305.43
2019-02-10T02:27:24.062Z,305.15
2019-02-10T02:28:24.368Z,304.81
2019-02-10T02:29:25.171Z,305.26
2019-02-10T02:30:24.064Z,304.97
2019-02-10T02:31:24.094Z,305.17
2019-02-10T02:32:24.009Z,304.81
2019-02-10T02:33:23.998Z,305.08
2019-02-10T02:34:23.970Z,305.20
2019-02-10T02:35:23.982Z,305.16
2019-02-10T02:36:23.997Z,305.65
2019-02-10T02:37:24.015Z,305.35
2019-02-10T02:38:23.931Z,305.63
2019-02-10T02:39:23.921Z,305.50
2019-02-10T02:40:23.904Z,304.87
2019-02-10T02:41:23.896Z,305.24
2019-02-10T02:42:23.911Z,305.54
2019-02-10T02:43:23.883Z,305.50
2019-02-10T02:44:23.880Z,305.06
2019-02-10T02:45:23.856Z,305.89
2019-02-10T02:46:23.857Z,305.30
2019-02-10T02:47:23.834Z,304.95
2019-02-10T02:48:23.831Z,305.82
2019-02-10T02:49:23.811Z,305.55
2019-02-10T02:50:23.802Z,305.01
2019-02-10T02:51:23.815Z,305.21
2019-02-10T02:52:23.772Z,305.30
2019-02-10T02:53:23.772Z,305.38
2019-02-10T02:54:23.762Z,305.55
2019-02-10T02:55:23.752Z,305.75
2019-02-10T02:56:23.760Z,306.01
2019-02-10T02:57:23.740Z,305.49
2019-02-10T02:58:23.710Z,305.04
2019-02-10T02:59:23.696Z,305.32
2019-02-10T03:00:23.686Z,305.18
2019-02-10T03:01:23.675Z,305.53
2019-02-10T03:02:23.699Z,305.68
2019-02-10T03:03:23.678Z,305.42
2019-02-10T03:04:23.649Z,305.31
2019-02-10T03:05:23.663Z,305.52
2019-02-10T03:06:23.627Z,305.47
2019-02-10T03:07:23.614Z,305.36
2019-02-10T03:08:23.609Z,305.69
2019-02-10T03:09:23.607Z,305.32
2019-02-10T03:10:23.587Z,305.48
2019-02-10T03:11:23.589Z,305.27
2019-02-10T03:12:23.556Z,305.02
2019-02-10T03:13:23.538Z,305.21
2019-02-10T03:14:23.537Z,305.11
2019-02-10T03:15:23.544Z,305.45
2019-02-10T03:16:23.551Z,304.96
2019-02-10T03:17:23.507Z,305.40
2019-02-10T03:18:23.494Z,305.46
2019-02-10T03:19:23.479Z,305.37
2019-02-10T03:20:23.477Z,305.31
2019-02-10T03:21:23.456Z,305.31
2019-02-10T03:22:23.472Z,305.46
2019-02-10T03:23:23.465Z,305.32
2019-02-10T03:24:23.429Z,305.45
2019-02-10T03:25:23.416Z,304.90
2019-02-10T03:26:23.443Z,305.15
2019-02-10T03:27:23.402Z,305.48
2019-02-10T03:28:23.393Z,305.43
2019-02-10T03:29:23.381Z,305.39
2019-02-10T03:30:23.366Z,305.62
2019-02-10T03:31:23.348Z,305.66
2019-02-10T03:32:23.358Z,304.83
2019-02-10T03:33:23.328Z,305.73
2019-02-10T03:34:23.335Z,305.48
2019-02-10T03:35:23.312Z,305.28
2019-02-10T03:36:23.315Z,305.17
2019-02-10T03:37:27.269Z,305.55
2019-02-10T03:38:23.284Z,305.20
2019-02-10T03:39:23.279Z,305.51
2019-02-10T03:40:23.262Z,305.60
2019-02-10T03:41:23.246Z,305.37
2019-02-10T03:42:23.234Z,305.39
2019-02-10T03:43:23.249Z,305.21
2019-02-10T03:44:23.202Z,305.51
2019-02-10T03:45:23.203Z,305.64
2019-02-10T03:46:23.211Z,305.42
2019-02-10T03:47:23.187Z,305.34
2019-02-10T03:48:23.198Z,305.76
2019-02-10T03:49:23.168Z,305.33
2019-02-10T03:50:23.141Z,305.13
2019-02-10T03:51:23.135Z,305.29
2019-02-10T03:52:23.117Z,305.54
2019-02-10T03:53:23.142Z,305.77
2019-02-10T03:54:23.110Z,304.88
2019-02-10T03:55:23.096Z,305.64
2019-02-10T03:56:23.074Z,305.50
2019-02-10T03:57:23.076Z,304.92
2019-02-10T03:58:23.089Z,305.22
2019-02-10T03:59:23.075Z,305.11
2019-02-10T04:00:23.041Z,305.17
2019-02-10T04:01:23.043Z,305.18
2019-02-10T04:02:23.012Z,305.47
2019-02-10T04:03:23.023Z,304.65
2019-02-10T04:04:23.026Z,305.67
2019-02-10T04:05:22.988Z,305.36
2019-02-10T04:06:22.980Z,305.36
2019-02-10T04:07:22.969Z,305.04
2019-02-10T04:08:22.982Z,305.44
2019-02-10T04:09:22.979Z,304.92
2019-02-10T04:10:22.922Z,305.11
2019-02-10T04:11:22.941Z,305.31
2019-02-10T04:12:22.907Z,305.69
2019-02-10T04:13:22.894Z,304.97
2019-02-10T04:14:22.893Z,305.19
2019-02-10T04:15:22.910Z,305.36
2019-02-10T04:16:22.873Z,305.42
2019-02-10T04:17:22.870Z,305.47
2019-02-10T04:18:22.858Z,305.32
2019-02-10T04:19:22.832Z,305.19
2019-02-10T04:20:22.826Z,305.38
2019-02-10T04:21:22.815Z,305.23
2019-02-10T04:22:22.816Z,305.25
2019-02-10T04:23:22.793Z,305.59
2019-02-10T04:24:22.775Z,305.49
2019-02-10T04:25:22.760Z,305.29
2019-02-10T04:26:22.775Z,305.51
2019-02-10T04:27:22.749Z,305.63
2019-02-10T04:28:22.740Z,305.68
2019-02-10T04:29:22.714Z,305.54
2019-02-10T04:30:22.724Z,305.03
2019-02-10T04:31:22.734Z,305.11
2019-02-10T04:32:22.697Z,305.40
2019-02-10T04:33:22.692Z,305.85
2019-02-10T04:34:22.656Z,305.42
2019-02-10T04:35:22.651Z,305.23
2019-02-10T04:36:22.633Z,305.30
2019-02-10T04:37:22.642Z,305.45
2019-02-10T04:38:22.635Z,305.64
2019-02-10T04:39:22.613Z,305.42
2019-02-10T04:40:22.603Z,305.84
2019-02-10T04:41:22.599Z,305.19
2019-02-10T04:42:22.600Z,304.79
2019-02-10T04:43:22.574Z,305.46
2019-02-10T04:44:22.575Z,305.31
2019-02-10T04:45:22.548Z,305.48
2019-02-10T04:46:22.530Z,305.54
2019-02-10T04:47:22.539Z,305.76
2019-02-10T04:48:22.540Z,305.39
2019-02-10T04:49:22.504Z,305.44
2019-02-10T04:50:22.492Z,305.42
2019-02-10T04:51:22.486Z,305.19
2019-02-10T04:52:22.471Z,305.47
2019-02-10T04:53:22.472Z,305.72
2019-02-10T04:54:22.482Z,305.78
2019-02-10T04:55:22.434Z,305.51
2019-02-10T04:56:22.418Z,305.29
2019-02-10T04:57:22.416Z,305.22
2019-02-10T04:58:22.407Z,305.61
2019-02-10T04:59:22.399Z,305.60
2019-02-10T05:00:22.396Z,305.41
2019-02-10T05:01:22.377Z,305.39
2019-02-10T05:02:22.366Z,305.35
2019-02-10T05:03:22.351Z,305.51
2019-02-10T05:04:22.365Z,305.88
2019-02-10T05:05:22.442Z,305.34
2019-02-10T05:06:22.339Z,305.38
2019-02-10T05:07:22.303Z,305.68
2019-02-10T05:08:22.286Z,305.52
2019-02-10T05:09:22.310Z,305.40
2019-02-10T05:10:22.282Z,305.74
2019-02-10T05:11:22.286Z,304.93
2019-02-10T05:12:22.265Z,305.67
2019-02-10T05:13:22.242Z,305.86
2019-02-10T05:14:22.229Z,305.49
2019-02-10T05:15:22.209Z,305.64
2019-02-10T05:16:22.249Z,305.28
2019-02-10T05:17:22.213Z,305.06
2019-02-10T05:18:22.185Z,305.61
2019-02-10T05:19:22.188Z,305.30
2019-02-10T05:20:22.175Z,304.99
2019-02-10T05:21:22.148Z,305.21
2019-02-10T05:22:22.172Z,305.31
2019-02-10T05:23:22.138Z,305.71
2019-02-10T05:24:22.134Z,305.87
2019-02-10T05:25:22.120Z,305.37
2019-02-10T05:26:22.097Z,305.52
2019-02-10T05:27:22.107Z,305.40
2019-02-10T05:28:22.079Z,305.45
2019-02-10T05:29:22.067Z,305.87
2019-02-10T05:30:22.066Z,305.81
2019-02-10T05:31:22.046Z,305.62
2019-02-10T05:32:22.063Z,305.57
2019-02-10T05:33:22.023Z,305.81
2019-02-10T05:34:22.018Z,305.57
2019-02-10T05:35:22.011Z,305.11
2019-02-10T05:36:21.990Z,305.43
2019-02-10T05:37:21.987Z,305.53
2019-02-10T05:38:21.995Z,305.80
2019-02-10T05:39:21.959Z,305.97
2019-02-10T05:40:21.941Z,305.52
2019-02-10T05:41:21.951Z,304.98
2019-02-10T05:42:21.924Z,305.45
2019-02-10T05:43:21.950Z,305.65
2019-02-10T05:44:21.906Z,305.63
2019-02-10T05:45:21.946Z,305.57
2019-02-10T05:46:21.874Z,305.54
2019-02-10T05:47:21.878Z,305.53
2019-02-10T05:48:21.872Z,305.17
2019-02-10T05:49:21.883Z,305.48
2019-02-10T05:50:21.836Z,305.57
2019-02-10T05:51:21.822Z,305.56
2019-02-10T05:52:21.816Z,305.88
2019-02-10T05:53:21.798Z,305.71
2019-02-10T05:54:21.799Z,305.47
2019-02-10T05:55:21.818Z,305.85
2019-02-10T05:56:21.777Z,305.45
2019-02-10T05:57:21.768Z,305.35
2019-02-10T05:58:21.743Z,305.40
2019-02-10T05:59:21.733Z,305.19
2019-02-10T06:00:21.745Z,306.26
2019-02-10T06:01:21.735Z,305.52
2019-02-10T06:02:21.712Z,305.41
2019-02-10T06:03:21.708Z,305.49
2019-02-10T06:04:21.688Z,305.61
2019-02-10T06:05:21.698Z,305.41
2019-02-10T06:06:21.692Z,305.47
2019-02-10T06:07:21.657Z,305.40
2019-02-10T06:08:21.656Z,305.66
2019-02-10T06:09:21.648Z,305.33
2019-02-10T06:10:21.617Z,305.14
2019-02-10T06:11:21.629Z,305.07
2019-02-10T06:12:21.597Z,305.77
2019-02-10T06:13:21.581Z,305.63
2019-02-10T06:14:21.589Z,305.58
2019-02-10T06:15:21.567Z,305.57
2019-02-10T06:16:21.577Z,305.57
2019-02-10T06:17:21.577Z,305.55
2019-02-10T06:18:21.524Z,305.27
2019-02-10T06:19:21.515Z,305.48
2019-02-10T06:20:21.522Z,305.16
2019-02-10T06:21:21.504Z,305.17
2019-02-10T06:22:21.495Z,305.31
2019-02-10T06:23:21.506Z,305.24
2019-02-10T06:24:21.475Z,305.71
2019-02-10T06:25:21.484Z,305.37
2019-02-10T06:26:21.462Z,305.54
2019-02-10T06:27:21.439Z,305.83
2019-02-10T06:28:21.429Z,305.32
2019-02-10T06:29:21.445Z,305.29
2019-02-10T06:30:21.398Z,305.93
2019-02-10T06:31:21.389Z,305.45
2019-02-10T06:32:21.370Z,305.52
2019-02-10T06:33:21.382Z,305.54
2019-02-10T06:34:21.356Z,305.31
2019-02-10T06:35:21.375Z,305.23
2019-02-10T06:36:21.330Z,305.29
2019-02-10T06:37:21.319Z,305.58
2019-02-10T06:38:22.739Z,305.49
2019-02-10T06:39:21.308Z,305.45
2019-02-10T06:40:21.318Z,305.58
2019-02-10T06:41:21.287Z,305.43
2019-02-10T06:42:21.264Z,305.27
2019-02-10T06:43:21.265Z,305.59
2019-02-10T06:44:21.246Z,305.31
2019-02-10T06:45:21.257Z,305.65
2019-02-10T06:46:21.238Z,305.45
2019-02-10T06:47:21.238Z,305.54
2019-02-10T06:48:21.206Z,305.82
2019-02-10T06:49:21.207Z,305.88
2019-02-10T06:50:21.196Z,305.67
2019-02-10T06:51:21.205Z,305.57
2019-02-10T06:52:21.162Z,305.57
2019-02-10T06:53:21.158Z,305.60
2019-02-10T06:54:21.135Z,305.36
2019-02-10T06:55:21.119Z,305.89
2019-02-10T06:56:21.139Z,305.00
2019-02-10T06:57:21.113Z,305.20
2019-02-10T06:58:21.107Z,305.23
2019-02-10T06:59:21.096Z,305.13
2019-02-10T07:00:21.095Z,305.56
2019-02-10T07:01:21.095Z,305.21
2019-02-10T07:02:21.047Z,305.72
2019-02-10T07:03:21.045Z,305.68
2019-02-10T07:04:21.026Z,305.27
2019-02-10T07:05:21.014Z,306.03
2019-02-10T07:06:21.045Z,305.31
2019-02-10T07:07:21.002Z,305.68
2019-02-10T07:08:20.984Z,305.30
2019-02-10T07:09:20.967Z,305.34
2019-02-10T07:10:20.988Z,305.51
2019-02-10T07:11:20.962Z,305.45
2019-02-10T07:12:20.967Z,305.21
2019-02-10T07:13:20.929Z,305.49
2019-02-10T07:14:20.910Z,305.40
2019-02-10T07:15:20.954Z,305.70
2019-02-10T07:16:20.895Z,305.40
2019-02-10T07:17:20.932Z,305.51
2019-02-10T07:18:20.881Z,305.76
2019-02-10T07:19:20.899Z,305.61
2019-02-10T07:20:20.863Z,305.69
2019-02-10T07:21:21.169Z,305.47
2019-02-10T07:22:20.904Z,305.55
2019-02-10T07:23:20.818Z,305.93
2019-02-10T07:24:20.812Z,305.57
2019-02-10T07:25:20.805Z,305.90
2019-02-10T07:26:20.786Z,305.75
2019-02-10T07:27:20.809Z,305.58
2019-02-10T07:28:20.788Z,305.61
2019-02-10T07:29:20.763Z,305.96
2019-02-10T07:30:20.765Z,305.55
2019-02-10T07:31:20.809Z,305.68
2019-02-10T07:32:20.722Z,305.30
2019-02-10T07:33:20.731Z,306.04
2019-02-10T07:34:20.689Z,305.28
2019-02-10T07:35:20.693Z,305.82
2019-02-10T07:36:20.687Z,305.91
2019-02-10T07:37:20.672Z,305.64
2019-02-10T07:38:20.686Z,305.58
2019-02-10T07:39:20.656Z,305.23
2019-02-10T07:40:20.654Z,305.40
2019-02-10T07:41:20.662Z,305.78
2019-02-10T07:42:20.620Z,305.69
2019-02-10T07:43:20.657Z,305.99
2019-02-10T07:44:20.594Z,306.17
2019-02-10T07:45:20.584Z,305.60
2019-02-10T07:46:20.569Z,305.62
2019-02-10T07:47:20.550Z,305.31
2019-02-10T07:48:20.554Z,305.81
2019-02-10T07:49:20.555Z,305.37
2019-02-10T07:50:20.527Z,305.37
2019-02-10T07:51:20.522Z,305.45
2019-02-10T07:52:20.513Z,305.67
2019-02-10T07:53:20.499Z,305.24
2019-02-10T07:54:20.512Z,305.64
2019-02-10T07:55:20.473Z,305.46
2019-02-10T07:56:20.471Z,305.64
2019-02-10T07:57:20.454Z,305.48
2019-02-10T07:58:20.441Z,305.78
2019-02-10T07:59:20.431Z,305.80
2019-02-10T08:00:20.434Z,305.83
2019-02-10T08:01:20.475Z,305.35
2019-02-10T08:02:20.396Z,305.54
2019-02-10T08:03:20.382Z,305.27
2019-02-10T08:04:20.384Z,305.55
2019-02-10T08:05:20.390Z,305.32
2019-02-10T08:06:20.416Z,305.88
2019-02-10T08:07:20.337Z,305.21
2019-02-10T08:08:20.319Z,305.95
2019-02-10T08:09:20.314Z,305.59
2019-02-10T08:10:20.309Z,305.60
2019-02-10T08:11:20.299Z,305.95
2019-02-10T08:12:20.304Z,305.42
2019-02-10T08:13:20.271Z,305.46
2019-02-10T08:14:20.270Z,305.70
2019-02-10T08:15:20.261Z,305.56
2019-02-10T08:16:20.275Z,305.80
2019-02-10T08:17:20.259Z,305.30
2019-02-10T08:18:20.221Z,305.88
2019-02-10T08:19:20.213Z,305.62
2019-02-10T08:20:20.190Z,305.36
2019-02-10T08:21:20.223Z,304.81
2019-02-10T08:22:20.177Z,305.10
2019-02-10T08:23:20.182Z,305.35
2019-02-10T08:24:20.162Z,305.04
2019-02-10T08:25:20.151Z,305.23
2019-02-10T08:26:20.133Z,304.88
2019-02-10T08:27:20.134Z,305.53
2019-02-10T08:28:20.124Z,305.44
2019-02-10T08:29:20.114Z,304.87
2019-02-10T08:30:20.093Z,304.92
2019-02-10T08:31:20.076Z,305.12
2019-02-10T08:32:20.089Z,304.80
2019-02-10T08:33:20.063Z,304.54
2019-02-10T08:34:20.050Z,305.10
2019-02-10T08:35:20.038Z,305.23
2019-02-10T08:36:20.018Z,305.31
2019-02-10T08:37:20.030Z,305.00
2019-02-10T08:38:20.006Z,304.55
2019-02-10T08:39:19.990Z,305.29
2019-02-10T08:40:19.999Z,304.75
2019-02-10T08:41:19.981Z,304.89
2019-02-10T08:42:19.952Z,305.32
2019-02-10T08:43:19.968Z,305.46
2019-02-10T08:44:19.961Z,305.06
2019-02-10T08:45:19.927Z,305.12
2019-02-10T08:46:19.914Z,305.13
2019-02-10T08:47:19.902Z,304.61
2019-02-10T08:48:19.886Z,304.99
2019-02-10T08:49:19.901Z,305.67
2019-02-10T08:50:19.900Z,305.06
2019-02-10T08:51:19.858Z,305.40
2019-02-10T08:52:19.884Z,305.23
2019-02-10T08:53:19.862Z,305.14
2019-02-10T08:54:19.825Z,305.54
2019-02-10T08:55:19.812Z,305.10
2019-02-10T08:56:19.797Z,305.23
2019-02-10T08:57:19.816Z,305.05
2019-02-10T08:58:19.787Z,305.67
2019-02-10T08:59:19.776Z,305.23
2019-02-10T09:00:19.763Z,305.46
2019-02-10T09:01:19.745Z,305.44
2019-02-10T09:02:19.787Z,305.17
2019-02-10T09:03:19.995Z,305.14
2019-02-10T09:04:19.718Z,305.01
2019-02-10T09:05:19.714Z,305.19
2019-02-10T09:06:19.688Z,305.29
2019-02-10T09:07:19.678Z,305.00
2019-02-10T09:08:19.702Z,304.86
2019-02-10T09:09:19.694Z,305.13
2019-02-10T09:10:19.653Z,304.69
2019-02-10T09:11:19.649Z,305.12
2019-02-10T09:12:19.706Z,305.22
2019-02-10T09:13:19.625Z,304.86
2019-02-10T09:14:19.598Z,304.89
2019-02-10T09:15:19.613Z,305.40
2019-02-10T09:16:19.591Z,304.98
2019-02-10T09:17:19.582Z,305.05
2019-02-10T09:18:19.557Z,305.20
2019-02-10T09:19:20.601Z,305.15
2019-02-10T09:20:19.536Z,305.32
2019-02-10T09:21:19.553Z,305.03
2019-02-10T09:22:19.522Z,305.38
2019-02-10T09:23:19.517Z,305.19
2019-02-10T09:24:19.557Z,305.40
2019-02-10T09:25:19.493Z,305.37
2019-02-10T09:26:19.480Z,305.39
2019-02-10T09:27:19.462Z,305.53
2019-02-10T09:28:19.457Z,305.52
2019-02-10T09:29:19.439Z,305.39
2019-02-10T09:30:19.466Z,305.42
2019-02-10T09:31:19.419Z,305.46
2019-02-10T09:32:19.413Z,305.55
2019-02-10T09:33:19.393Z,305.42
2019-02-10T09:34:19.393Z,305.33
2019-02-10T09:35:19.384Z,305.66
2019-02-10T09:36:19.390Z,305.79
2019-02-10T09:37:19.360Z,305.23
2019-02-10T09:38:19.345Z,305.32
2019-02-10T09:39:19.326Z,305.41
2019-02-10T09:40:19.318Z,305.64
2019-02-10T09:41:19.335Z,306.10
2019-02-10T09:42:19.309Z,305.32
2019-02-10T09:43:19.302Z,305.31
2019-02-10T09:44:19.284Z,305.59
2019-02-10T09:45:19.269Z,305.88
2019-02-10T09:46:19.260Z,305.37
2019-02-10T09:47:19.260Z,305.84
2019-02-10T09:48:19.236Z,306.05
2019-02-10T09:49:19.237Z,306.11
2019-02-10T09:50:19.220Z,305.64
2019-02-10T09:51:19.200Z,305.31
2019-02-10T09:52:19.222Z,305.25
2019-02-10T09:53:19.188Z,305.85
2019-02-10T09:54:19.176Z,305.85
2019-02-10T09:55:19.166Z,305.87
2019-02-10T09:56:19.158Z,305.68
2019-02-10T09:57:19.144Z,305.72
2019-02-10T09:58:19.147Z,306.21
2019-02-10T09:59:19.114Z,305.50
2019-02-10T10:00:19.099Z,305.48
2019-02-10T10:01:19.086Z,305.42
2019-02-10T10:02:19.111Z,305.66
2019-02-10T10:03:19.073Z,305.54
2019-02-10T10:04:19.053Z,305.84
2019-02-10T10:05:19.053Z,305.70
2019-02-10T10:06:19.038Z,305.89
2019-02-10T10:07:19.044Z,305.94
2019-02-10T10:08:19.021Z,305.73
2019-02-10T10:09:19.799Z,305.60
2019-02-10T10:10:18.994Z,305.79
2019-02-10T10:11:18.998Z,305.82
2019-02-10T10:12:19.002Z,305.67
2019-02-10T10:13:18.955Z,305.93
2019-02-10T10:14:19.788Z,305.92
2019-02-10T10:15:18.944Z,305.69
2019-02-10T10:16:18.937Z,305.62
2019-02-10T10:17:18.920Z,305.47
2019-02-10T10:18:18.944Z,305.88
2019-02-10T10:19:18.887Z,305.77
2019-02-10T10:20:18.894Z,305.81
2019-02-10T10:21:18.879Z,305.72
2019-02-10T10:22:18.863Z,305.58
2019-02-10T10:23:18.881Z,305.72
2019-02-10T10:24:18.838Z,305.81
2019-02-10T10:25:18.832Z,306.19
2019-02-10T10:26:18.822Z,305.70
2019-02-10T10:27:18.822Z,306.18
2019-02-10T10:28:18.821Z,305.70
2019-02-10T10:29:18.786Z,305.97
2019-02-10T10:30:18.773Z,305.70
2019-02-10T10:31:18.758Z,306.15
2019-02-10T10:32:18.748Z,305.62
2019-02-10T10:33:18.760Z,306.00
2019-02-10T10:34:18.741Z,305.79
2019-02-10T10:35:18.733Z,305.96
2019-02-10T10:36:18.709Z,306.12
2019-02-10T10:37:18.706Z,306.15
2019-02-10T10:38:18.729Z,305.50
2019-02-10T10:39:18.682Z,305.52
2019-02-10T10:40:18.676Z,305.93
2019-02-10T10:41:18.662Z,305.63
2019-02-10T10:42:18.648Z,305.93
2019-02-10T10:43:18.649Z,305.66
2019-02-10T10:44:18.632Z,305.60
2019-02-10T10:45:18.606Z,305.76
2019-02-10T10:46:18.603Z,305.69
2019-02-10T10:47:18.595Z,305.76
2019-02-10T10:48:18.609Z,305.65
2019-02-10T10:49:18.571Z,305.90
2019-02-10T10:50:18.553Z,305.63
2019-02-10T10:51:18.542Z,306.22
2019-02-10T10:52:18.564Z,305.53
2019-02-10T10:53:18.561Z,305.77
2019-02-10T10:54:18.515Z,306.15
2019-02-10T10:55:18.501Z,305.61
2019-02-10T10:56:18.493Z,305.59
2019-02-10T10:57:18.479Z,306.03
2019-02-10T10:58:18.497Z,306.06
2019-02-10T10:59:18.503Z,305.59
2019-02-10T11:00:18.457Z,306.39
2019-02-10T11:01:25.227Z,306.00
2019-02-10T11:02:19.422Z,305.56
2019-02-10T11:03:18.433Z,305.93
2019-02-10T11:04:18.412Z,305.91
2019-02-10T11:05:18.386Z,305.51
2019-02-10T11:06:18.407Z,306.10
2019-02-10T11:07:18.372Z,305.70
2019-02-10T11:08:18.375Z,305.83
2019-02-10T11:09:18.347Z,305.69
2019-02-10T11:10:18.354Z,306.13
2019-02-10T11:11:18.328Z,305.87
2019-02-10T11:12:18.362Z,305.73
2019-02-10T11:13:18.337Z,305.85
2019-02-10T11:14:18.297Z,306.53
2019-02-10T11:15:18.288Z,306.06
2019-02-10T11:16:18.271Z,305.74
2019-02-10T11:17:18.254Z,305.95
2019-02-10T11:18:18.301Z,306.28
2019-02-10T11:19:18.260Z,306.12
2019-02-10T11:20:18.239Z,306.21
2019-02-10T11:21:18.224Z,306.07
2019-02-10T11:22:18.227Z,306.40
2019-02-10T11:23:18.194Z,306.31
2019-02-10T11:24:18.224Z,306.32
2019-02-10T11:25:18.213Z,306.13
2019-02-10T11:26:18.177Z,305.90
2019-02-10T11:27:18.145Z,306.16
2019-02-10T11:28:18.140Z,306.37
2019-02-10T11:29:18.126Z,306.39
2019-02-10T11:30:18.116Z,306.17
2019-02-10T11:31:18.129Z,306.07
2019-02-10T11:32:18.106Z,306.14
2019-02-10T11:33:18.088Z,305.84
2019-02-10T11:34:18.069Z,306.04
2019-02-10T11:35:18.087Z,306.39
2019-02-10T11:36:18.050Z,305.84
2019-02-10T11:37:18.067Z,306.19
2019-02-10T11:38:18.040Z,305.82
2019-02-10T11:39:18.027Z,305.58
2019-02-10T11:40:18.020Z,305.76
2019-02-10T11:41:18.025Z,306.31
2019-02-10T11:42:17.991Z,305.94
2019-02-10T11:43:17.989Z,306.13
2019-02-10T11:44:17.967Z,305.98
2019-02-10T11:45:17.957Z,305.69
2019-02-10T11:46:17.968Z,305.92
2019-02-10T11:47:17.925Z,306.03
2019-02-10T11:48:17.935Z,306.03
2019-02-10T11:49:17.914Z,306.02
2019-02-10T11:50:17.901Z,306.20
2019-02-10T11:51:17.914Z,306.35
2019-02-10T11:52:17.892Z,305.96
2019-02-10T11:53:17.915Z,305.81
2019-02-10T11:54:17.869Z,306.04
2019-02-10T11:55:17.848Z,306.10
2019-02-10T11:56:17.845Z,305.72
2019-02-10T11:57:17.828Z,305.95
2019-02-10T11:58:17.849Z,305.92
2019-02-10T11:59:17.809Z,305.83
2019-02-10T12:00:17.789Z,306.28
2019-02-10T12:01:17.777Z,305.78
2019-02-10T12:02:17.788Z,305.91
2019-02-10T12:03:17.761Z,305.80
2019-02-10T12:04:17.778Z,306.13
2019-02-10T12:05:17.741Z,306.15
2019-02-10T12:06:17.750Z,306.07
2019-02-10T12:07:17.706Z,305.72
2019-02-10T12:08:17.701Z,305.98
2019-02-10T12:09:17.689Z,305.87
2019-02-10T12:10:17.685Z,305.81
2019-02-10T12:11:17.679Z,305.80
2019-02-10T12:12:17.681Z,306.06
2019-02-10T12:13:17.643Z,305.92
2019-02-10T12:14:17.655Z,305.98
2019-02-10T12:15:17.633Z,305.75
2019-02-10T12:16:17.654Z,305.75
2019-02-10T12:17:17.612Z,305.94
2019-02-10T12:18:17.583Z,305.73
2019-02-10T12:19:17.582Z,305.61
2019-02-10T12:20:17.597Z,305.91
2019-02-10T12:21:17.594Z,306.12
2019-02-10T12:22:17.553Z,305.85
2019-02-10T12:23:17.541Z,305.72
2019-02-10T12:24:17.554Z,305.79
2019-02-10T12:25:17.520Z,306.04
2019-02-10T12:26:17.494Z,305.88
2019-02-10T12:27:17.524Z,305.78
2019-02-10T12:28:17.501Z,305.85